Terminal Aerodrome Forecast
Issued by NWS

Home | Current Version | Previous Version | Text Only | Print | Product List | Glossary On
Versions: 1 2 3 4 5 6 7 8 9 10 11 12 13
000
FTUS44 KJAN 181700
TAFGTR
TAF
KGTR 181720Z 1818/1918 09012KT 1SM -RA BR VCSH OVC023
     FM182100 07007KT P6SM VCSH OVC050
     FM190200 VRB03KT P6SM SCT100
     FM190800 33003KT P6SM SKC=

USA.gov is the U.S. government's official web portal to all federal, state and local government web resources and services.